createdAt,value
2018-08-24T00:01:52.073Z,11.33
2018-08-24T00:04:22.520Z,11.33
2018-08-24T00:06:55.069Z,12.50
2018-08-24T00:09:28.366Z,13.33
2018-08-24T00:12:01.729Z,10.33
2018-08-24T00:14:31.243Z,11.00
2018-08-24T00:17:02.231Z,13.00
2018-08-24T00:19:32.390Z,11.00
2018-08-24T00:22:02.627Z,10.67
2018-08-24T00:24:33.544Z,12.00
2018-08-24T00:27:02.874Z,14.00
2018-08-24T00:29:33.484Z,11.67
2018-08-24T00:32:04.508Z,12.33
2018-08-24T00:34:36.480Z,15.00
2018-08-24T00:37:06.725Z,14.00
2018-08-24T00:39:37.056Z,15.00
2018-08-24T00:42:07.438Z,16.00
2018-08-24T00:44:38.261Z,16.67
2018-08-24T00:47:09.610Z,17.67
2018-08-24T00:49:40.064Z,14.33
2018-08-24T00:52:10.892Z,18.67
2018-08-24T00:54:41.527Z,14.67
2018-08-24T00:57:13.040Z,14.67
2018-08-24T00:59:44.352Z,14.67
2018-08-24T01:02:15.343Z,15.00
2018-08-24T01:04:45.818Z,15.67
2018-08-24T01:07:15.904Z,17.00
2018-08-24T01:09:46.214Z,18.00
2018-08-24T01:12:18.457Z,17.00
2018-08-24T01:14:50.037Z,19.00
2018-08-24T01:17:25.406Z,18.33
2018-08-24T01:19:55.035Z,17.67
2018-08-24T01:22:26.282Z,24.00
2018-08-24T01:24:55.726Z,19.33
2018-08-24T01:27:25.239Z,18.00
2018-08-24T01:29:57.537Z,17.33
2018-08-24T01:32:30.971Z,17.67
2018-08-24T01:35:04.276Z,21.67
2018-08-24T01:37:34.265Z,18.33
2018-08-24T01:40:04.554Z,23.00
2018-08-24T01:42:34.846Z,19.00
2018-08-24T01:45:06.039Z,16.33
2018-08-24T01:47:36.670Z,18.00
2018-08-24T01:50:09.058Z,16.00
2018-08-24T01:52:40.495Z,18.00
2018-08-24T01:55:10.034Z,16.00
2018-08-24T01:57:39.306Z,20.00
2018-08-24T02:00:16.209Z,18.00
2018-08-24T02:02:47.820Z,18.33
2018-08-24T02:05:20.577Z,19.33
2018-08-24T02:07:52.251Z,21.33
2018-08-24T02:10:29.271Z,18.00
2018-08-24T02:13:05.625Z,21.33
2018-08-24T02:15:37.481Z,24.00
2018-08-24T02:19:14.830Z,19.33
2018-08-24T02:21:50.036Z,20.00
2018-08-24T02:24:19.674Z,19.67
2018-08-24T02:26:48.999Z,21.33
2018-08-24T02:29:18.373Z,18.00
2018-08-24T02:31:52.886Z,20.33
2018-08-24T02:34:22.517Z,18.67
2018-08-24T02:36:55.006Z,21.67
2018-08-24T02:39:26.255Z,19.67
2018-08-24T02:41:55.687Z,18.00
2018-08-24T02:44:25.627Z,18.67
2018-08-24T02:46:56.808Z,22.00
2018-08-24T02:49:28.822Z,18.00
2018-08-24T02:51:58.903Z,19.00
2018-08-24T02:54:31.802Z,20.00
2018-08-24T02:57:04.344Z,20.67
2018-08-24T02:59:35.864Z,19.33
2018-08-24T03:02:06.533Z,21.00
2018-08-24T03:04:39.414Z,23.67
2018-08-24T03:07:11.672Z,23.00
2018-08-24T03:09:43.927Z,17.33
2018-08-24T03:12:15.331Z,18.67
2018-08-24T03:14:47.625Z,18.33
2018-08-24T03:17:25.051Z,22.00
2018-08-24T03:19:57.469Z,19.67
2018-08-24T03:22:30.222Z,17.00
2018-08-24T03:25:01.859Z,20.00
2018-08-24T03:27:34.304Z,21.67
2018-08-24T03:30:07.284Z,18.00
2018-08-24T03:32:38.578Z,21.33
2018-08-24T03:35:10.624Z,20.67
2018-08-24T03:37:44.686Z,17.00
2018-08-24T03:40:16.995Z,21.00
2018-08-24T03:42:48.203Z,20.67
2018-08-24T03:45:22.879Z,20.00
2018-08-24T03:47:54.213Z,18.00
2018-08-24T03:50:26.753Z,22.00
2018-08-24T03:52:57.981Z,19.00
2018-08-24T03:55:33.612Z,23.67
2018-08-24T03:58:03.833Z,20.00
2018-08-24T04:00:36.678Z,20.33
2018-08-24T04:03:09.923Z,18.67
2018-08-24T04:05:42.674Z,24.33
2018-08-24T04:08:13.569Z,18.33
2018-08-24T04:10:46.414Z,19.67
2018-08-24T04:13:17.177Z,17.67
2018-08-24T04:15:49.160Z,20.00
2018-08-24T04:18:21.362Z,20.33
2018-08-24T04:20:53.791Z,20.00
2018-08-24T04:23:27.149Z,20.67
2018-08-24T04:25:59.117Z,22.33
2018-08-24T04:28:32.241Z,21.33
2018-08-24T04:31:04.261Z,22.33
2018-08-24T04:33:36.477Z,19.33
2018-08-24T04:36:07.603Z,22.33
2018-08-24T04:38:39.359Z,22.67
2018-08-24T04:41:11.439Z,23.67
2018-08-24T04:43:43.679Z,21.67
2018-08-24T04:46:15.405Z,23.00
2018-08-24T04:48:47.612Z,20.00
2018-08-24T04:51:20.014Z,26.00
2018-08-24T04:53:52.165Z,22.33
2018-08-24T04:56:24.443Z,23.00
2018-08-24T04:58:56.351Z,23.33
2018-08-24T05:01:28.852Z,19.67
2018-08-24T05:04:01.051Z,16.67
2018-08-24T05:06:32.858Z,18.67
2018-08-24T05:09:05.989Z,17.67
2018-08-24T05:11:37.341Z,16.00
2018-08-24T05:14:09.457Z,14.00
2018-08-24T05:16:42.576Z,12.00
2018-08-24T05:19:17.575Z,16.33
2018-08-24T05:21:52.574Z,11.20
2018-08-24T05:24:25.685Z,16.00
2018-08-24T05:26:58.685Z,15.33
2018-08-24T05:29:32.673Z,17.00
2018-08-24T05:32:05.000Z,14.33
2018-08-24T05:34:37.438Z,16.00
2018-08-24T05:37:09.727Z,14.67
2018-08-24T05:39:42.479Z,15.00
2018-08-24T05:42:15.271Z,16.33
2018-08-24T05:44:45.405Z,12.00
2018-08-24T05:47:19.842Z,12.00
2018-08-24T05:49:51.672Z,10.33
2018-08-24T05:52:25.497Z,13.00
2018-08-24T05:54:58.503Z,10.00
2018-08-24T05:57:31.751Z,11.67
2018-08-24T06:00:06.478Z,11.00
2018-08-24T06:02:39.903Z,7.67
2018-08-24T06:05:14.544Z,9.00
2018-08-24T06:07:48.198Z,6.00
2018-08-24T06:10:20.585Z,5.00
2018-08-24T06:12:54.061Z,4.20
2018-08-24T06:15:26.907Z,3.00
2018-08-24T06:18:01.606Z,3.00
2018-08-24T06:20:35.710Z,3.00
2018-08-24T06:23:16.511Z,3.00
2018-08-24T06:25:50.039Z,2.80
2018-08-24T06:28:23.336Z,4.60
2018-08-24T06:30:57.002Z,2.60
2018-08-24T06:33:32.372Z,3.00
2018-08-24T06:36:07.160Z,2.80
2018-08-24T06:38:40.787Z,2.00
2018-08-24T06:41:14.773Z,2.40
2018-08-24T06:43:48.349Z,4.40
2018-08-24T06:46:22.347Z,2.00
2018-08-24T06:48:56.218Z,3.80
2018-08-24T06:51:29.998Z,2.80
2018-08-24T06:54:03.600Z,2.60
2018-08-24T06:56:37.066Z,3.00
2018-08-24T06:59:12.879Z,4.20
2018-08-24T07:01:49.667Z,6.00
2018-08-24T07:04:27.372Z,3.00
2018-08-24T07:07:00.793Z,3.40
2018-08-24T07:09:37.309Z,4.00
2018-08-24T07:12:12.734Z,2.00
2018-08-24T07:14:46.814Z,2.00
2018-08-24T07:17:25.236Z,4.20
2018-08-24T07:19:59.333Z,2.80
2018-08-24T07:22:31.128Z,2.00
2018-08-24T07:25:04.391Z,5.60
2018-08-24T07:27:38.570Z,3.00
2018-08-24T07:30:16.078Z,2.20
2018-08-24T07:32:50.696Z,2.00
2018-08-24T07:35:23.365Z,3.80
2018-08-24T07:37:56.608Z,4.60
2018-08-24T07:40:29.352Z,4.20
2018-08-24T07:43:03.429Z,5.00
2018-08-24T07:45:40.644Z,4.60
2018-08-24T07:48:12.391Z,4.20
2018-08-24T07:50:44.769Z,5.20
2018-08-24T07:53:19.200Z,5.60
2018-08-24T07:55:51.627Z,5.20
2018-08-24T07:58:37.421Z,4.60
2018-08-24T08:01:09.842Z,6.00
2018-08-24T08:03:42.526Z,5.80
2018-08-24T08:06:17.068Z,7.20
2018-08-24T08:08:52.564Z,5.60
2018-08-24T08:11:26.682Z,5.00
2018-08-24T08:14:11.425Z,6.00
2018-08-24T08:16:45.574Z,6.00
2018-08-24T08:19:17.670Z,6.00
2018-08-24T08:21:49.402Z,6.20
2018-08-24T08:24:21.767Z,5.00
2018-08-24T08:26:54.793Z,6.00
2018-08-24T08:29:30.184Z,5.33
2018-08-24T08:32:02.020Z,5.60
2018-08-24T08:34:36.896Z,7.00
2018-08-24T08:37:08.240Z,6.00
2018-08-24T08:39:39.597Z,7.80
2018-08-24T08:42:11.682Z,7.40
2018-08-24T08:44:42.830Z,6.00
2018-08-24T08:47:14.038Z,7.00
2018-08-24T08:49:45.085Z,7.00
2018-08-24T08:52:22.625Z,6.40
2018-08-24T08:54:54.320Z,7.60
2018-08-24T08:57:26.004Z,7.80
2018-08-24T08:59:57.945Z,9.00
2018-08-24T09:02:28.381Z,9.33
2018-08-24T09:04:59.464Z,6.60
2018-08-24T09:07:29.779Z,8.67
2018-08-24T09:10:01.969Z,10.00
2018-08-24T09:12:32.240Z,9.67
2018-08-24T09:15:02.381Z,8.33
2018-08-24T09:17:38.103Z,8.33
2018-08-24T09:20:13.843Z,8.33
2018-08-24T09:22:49.788Z,7.33
2018-08-24T09:25:25.283Z,8.33
2018-08-24T09:28:01.286Z,10.00
2018-08-24T09:30:41.231Z,10.00
2018-08-24T09:33:12.245Z,12.00
2018-08-24T09:35:47.603Z,9.67
2018-08-24T09:38:19.148Z,11.00
2018-08-24T09:40:54.136Z,13.67
2018-08-24T09:43:33.684Z,11.00
2018-08-24T09:46:05.736Z,9.67
2018-08-24T09:48:40.982Z,12.00
2018-08-24T09:51:17.103Z,13.33
2018-08-24T09:53:54.688Z,12.00
2018-08-24T09:56:28.179Z,11.33
2018-08-24T09:59:01.657Z,10.33
2018-08-24T10:01:38.369Z,12.67
2018-08-24T10:04:15.155Z,9.33
2018-08-24T10:06:50.745Z,11.67
2018-08-24T10:09:21.055Z,11.67
2018-08-24T10:11:51.727Z,12.00
2018-08-24T10:14:23.189Z,10.67
2018-08-24T10:16:53.957Z,10.67
2018-08-24T10:19:25.071Z,13.67
2018-08-24T10:21:57.287Z,11.00
2018-08-24T10:24:27.708Z,12.00
2018-08-24T10:26:58.607Z,12.00
2018-08-24T10:29:29.166Z,13.00
2018-08-24T10:32:02.365Z,15.00
2018-08-24T10:34:32.748Z,9.80
2018-08-24T10:37:05.453Z,12.33
2018-08-24T10:39:36.181Z,12.33
2018-08-24T10:42:08.277Z,12.00
2018-08-24T10:44:40.631Z,12.67
2018-08-24T10:47:11.689Z,12.00
2018-08-24T10:49:44.519Z,13.33
2018-08-24T10:52:16.771Z,15.00
2018-08-24T10:54:47.085Z,12.00
2018-08-24T10:57:18.384Z,14.00
2018-08-24T10:59:49.202Z,14.00
2018-08-24T11:02:19.875Z,11.00
2018-08-24T11:04:53.666Z,10.33
2018-08-24T11:07:25.628Z,11.67
2018-08-24T11:09:56.070Z,10.00
2018-08-24T11:12:32.924Z,11.67
2018-08-24T11:15:05.087Z,14.00
2018-08-24T11:17:40.304Z,11.00
2018-08-24T11:20:10.490Z,13.33
2018-08-24T11:22:39.645Z,15.00
2018-08-24T11:25:11.631Z,14.00
2018-08-24T11:27:41.769Z,14.67
2018-08-24T11:30:15.222Z,16.67
2018-08-24T11:32:46.426Z,11.67
2018-08-24T11:35:16.650Z,13.00
2018-08-24T11:37:49.215Z,16.00
2018-08-24T11:40:18.551Z,11.00
2018-08-24T11:42:48.454Z,15.33
2018-08-24T11:45:19.235Z,13.33
2018-08-24T11:47:50.075Z,12.67
2018-08-24T11:50:20.403Z,13.33
2018-08-24T11:52:51.059Z,12.00
2018-08-24T11:55:22.482Z,16.33
2018-08-24T11:57:52.763Z,12.00
2018-08-24T12:00:31.876Z,12.00
2018-08-24T12:03:03.395Z,15.67
2018-08-24T12:05:35.679Z,12.17
2018-08-24T12:08:06.868Z,13.67
2018-08-24T12:10:37.146Z,13.00
2018-08-24T12:13:06.772Z,13.67
2018-08-24T12:15:36.067Z,13.33
2018-08-24T12:18:06.437Z,15.00
2018-08-24T12:20:37.057Z,12.00
2018-08-24T12:23:07.225Z,13.33
2018-08-24T12:25:37.341Z,14.00
2018-08-24T12:28:08.144Z,11.00
2018-08-24T12:30:39.383Z,14.67
2018-08-24T12:33:09.586Z,14.33
2018-08-24T12:35:40.211Z,11.00
2018-08-24T12:38:10.577Z,13.67
2018-08-24T12:40:40.297Z,12.67
2018-08-24T12:43:13.219Z,12.33
2018-08-24T12:45:44.381Z,13.00
2018-08-24T12:48:16.673Z,12.67
2018-08-24T12:50:49.006Z,13.67
2018-08-24T12:53:20.438Z,12.67
2018-08-24T12:55:52.204Z,15.00
2018-08-24T12:58:26.732Z,11.67
2018-08-24T13:00:58.462Z,14.00
2018-08-24T13:03:28.529Z,13.00
2018-08-24T13:06:01.061Z,10.67
2018-08-24T13:08:31.714Z,11.00
2018-08-24T13:11:02.883Z,12.00
2018-08-24T13:13:32.878Z,12.33
2018-08-24T13:16:03.115Z,11.33
2018-08-24T13:18:33.908Z,13.67
2018-08-24T13:21:04.994Z,14.00
2018-08-24T13:23:34.371Z,10.00
2018-08-24T13:26:05.226Z,10.67
2018-08-24T13:28:35.398Z,11.00
2018-08-24T13:31:08.998Z,12.33
2018-08-24T13:33:39.705Z,12.00
2018-08-24T13:36:09.896Z,9.67
2018-08-24T13:38:42.457Z,12.33
2018-08-24T13:41:14.402Z,10.67
2018-08-24T13:43:46.468Z,10.67
2018-08-24T13:46:19.994Z,9.80
2018-08-24T13:48:51.272Z,10.00
2018-08-24T13:51:21.710Z,11.00
2018-08-24T13:53:52.392Z,12.00
2018-08-24T13:56:22.479Z,11.67
2018-08-24T13:58:52.751Z,10.33
2018-08-24T14:01:22.954Z,10.00
2018-08-24T14:03:53.212Z,10.67
2018-08-24T14:06:23.377Z,9.40
2018-08-24T14:08:54.371Z,10.00
2018-08-24T14:11:25.663Z,9.00
2018-08-24T14:13:58.187Z,8.33
2018-08-24T14:16:28.552Z,8.33
2018-08-24T14:19:02.626Z,9.00
2018-08-24T14:21:32.883Z,9.33
2018-08-24T14:24:08.370Z,10.00
2018-08-24T14:26:40.530Z,7.80
2018-08-24T14:29:12.378Z,8.00
2018-08-24T14:31:43.894Z,8.00
2018-08-24T14:34:14.317Z,9.00
2018-08-24T14:36:46.452Z,8.40
2018-08-24T14:39:17.790Z,8.40
2018-08-24T14:41:48.552Z,8.67
2018-08-24T14:44:20.173Z,8.20
2018-08-24T14:46:52.432Z,6.60
2018-08-24T14:49:25.344Z,9.00
2018-08-24T14:51:59.183Z,8.67
2018-08-24T14:54:31.127Z,9.33
2018-08-24T14:57:02.571Z,8.00
2018-08-24T14:59:34.348Z,8.60
2018-08-24T15:02:06.468Z,9.00
2018-08-24T15:04:44.014Z,7.00
2018-08-24T15:07:15.468Z,7.33
2018-08-24T15:09:46.450Z,8.40
2018-08-24T15:12:18.293Z,9.00
2018-08-24T15:14:52.109Z,8.20
2018-08-24T15:17:24.609Z,8.20
2018-08-24T15:19:54.803Z,8.00
2018-08-24T15:22:26.351Z,8.80
2018-08-24T15:24:56.533Z,9.00
2018-08-24T15:27:27.591Z,8.60
2018-08-24T15:32:38.582Z,8.40
2018-08-24T15:35:08.780Z,7.67
2018-08-24T15:37:39.338Z,10.00
2018-08-24T15:40:10.438Z,7.60
2018-08-24T15:42:41.806Z,9.40
2018-08-24T15:45:14.325Z,8.00
2018-08-24T15:47:45.032Z,6.67
2018-08-24T15:50:16.252Z,7.33
2018-08-24T15:52:46.445Z,7.67
2018-08-24T15:55:18.438Z,10.33
2018-08-24T16:00:15.302Z,10.67
2018-08-24T16:02:46.435Z,10.00
2018-08-24T16:05:18.124Z,10.00
2018-08-24T16:07:48.259Z,11.00
2018-08-24T16:10:19.465Z,9.60
2018-08-24T16:12:51.797Z,10.75
2018-08-24T16:15:27.099Z,9.67
2018-08-24T16:18:02.501Z,11.00
2018-08-24T16:20:33.648Z,11.75
2018-08-24T16:23:03.968Z,9.00
2018-08-24T16:25:36.433Z,8.67
2018-08-24T16:28:08.660Z,9.00
2018-08-24T16:30:40.527Z,8.00
2018-08-24T16:33:15.277Z,8.00
2018-08-24T16:35:47.369Z,8.60
2018-08-24T16:38:19.060Z,9.60
2018-08-24T16:40:49.711Z,8.00
2018-08-24T16:43:22.344Z,8.33
2018-08-24T16:45:56.413Z,10.00
2018-08-24T16:48:27.836Z,9.20
2018-08-24T16:50:59.705Z,9.00
2018-08-24T16:53:30.341Z,9.33
2018-08-24T16:56:01.340Z,8.33
2018-08-24T16:58:32.532Z,8.33
2018-08-24T17:01:03.178Z,9.00
2018-08-24T17:03:35.283Z,9.00
2018-08-24T17:06:05.524Z,9.67
2018-08-24T17:08:37.807Z,8.80
2018-08-24T17:11:10.332Z,9.60
2018-08-24T17:13:41.613Z,8.00
2018-08-24T17:16:11.799Z,9.00
2018-08-24T17:18:43.643Z,8.00
2018-08-24T17:21:14.952Z,8.80
2018-08-24T17:23:48.387Z,8.00
2018-08-24T17:26:19.523Z,9.20
2018-08-24T17:28:51.532Z,8.20
2018-08-24T17:31:26.492Z,8.80
2018-08-24T17:33:59.580Z,10.00
2018-08-24T17:36:30.736Z,8.00
2018-08-24T17:39:03.641Z,8.20
2018-08-24T17:41:34.161Z,10.33
2018-08-24T17:44:05.184Z,8.40
2018-08-24T17:46:36.348Z,8.40
2018-08-24T17:49:07.690Z,8.00
2018-08-24T17:51:38.760Z,9.60
2018-08-24T17:54:11.137Z,9.00
2018-08-24T17:56:42.002Z,7.00
2018-08-24T17:59:13.449Z,9.00
2018-08-24T18:01:48.280Z,8.00
2018-08-24T18:04:19.375Z,8.40
2018-08-24T18:06:50.504Z,8.20
2018-08-24T18:09:21.478Z,7.80
2018-08-24T18:11:52.515Z,6.33
2018-08-24T18:14:23.859Z,9.40
2018-08-24T18:16:56.446Z,8.00
2018-08-24T18:19:27.332Z,9.00
2018-08-24T18:21:58.303Z,8.40
2018-08-24T18:24:29.381Z,7.40
2018-08-24T18:27:04.724Z,9.40
2018-08-24T18:29:35.637Z,6.33
2018-08-24T18:32:07.418Z,6.40
2018-08-24T18:34:39.575Z,7.80
2018-08-24T18:37:10.626Z,6.20
2018-08-24T18:39:43.686Z,4.60
2018-08-24T18:42:14.772Z,6.60
2018-08-24T18:44:47.988Z,6.00
2018-08-24T18:47:21.555Z,7.40
2018-08-24T18:49:54.458Z,7.00
2018-08-24T18:52:27.200Z,6.00
2018-08-24T18:54:58.598Z,6.00
2018-08-24T18:57:30.354Z,7.20
2018-08-24T19:00:02.435Z,6.60
2018-08-24T19:02:35.174Z,6.00
2018-08-24T19:05:06.634Z,5.00
2018-08-24T19:07:37.935Z,5.00
2018-08-24T19:10:10.584Z,6.00
2018-08-24T19:12:43.937Z,5.80
2018-08-24T19:15:16.104Z,7.00
2018-08-24T19:17:52.092Z,5.00
2018-08-24T19:20:28.763Z,5.00
2018-08-24T19:23:00.108Z,6.00
2018-08-24T19:25:31.718Z,5.80
2018-08-24T19:28:10.388Z,5.40
2018-08-24T19:33:49.856Z,6.17
2018-08-24T19:36:21.687Z,5.60
2018-08-24T19:38:52.992Z,6.60
2018-08-24T19:41:30.537Z,4.40
2018-08-24T19:44:01.795Z,4.20
2018-08-24T19:46:34.033Z,5.60
2018-08-24T19:49:12.603Z,6.00
2018-08-24T19:51:44.491Z,5.80
2018-08-24T19:54:16.977Z,7.60
2018-08-24T19:56:48.936Z,5.40
2018-08-24T19:59:21.270Z,5.40
2018-08-24T20:01:53.595Z,6.00
2018-08-24T20:04:26.791Z,6.00
2018-08-24T20:07:03.679Z,6.00
2018-08-24T20:09:39.935Z,5.00
2018-08-24T20:12:10.989Z,5.80
2018-08-24T20:14:47.197Z,6.60
2018-08-24T20:17:23.621Z,4.60
2018-08-24T20:19:54.651Z,5.00
2018-08-24T20:22:26.136Z,3.00
2018-08-24T20:24:58.399Z,5.00
2018-08-24T20:27:30.234Z,5.20
2018-08-24T20:30:01.787Z,4.60
2018-08-24T20:32:34.996Z,5.00
2018-08-24T20:35:06.276Z,4.20
2018-08-24T20:37:41.009Z,7.80
2018-08-24T20:40:12.459Z,4.60
2018-08-24T20:42:47.890Z,3.40
2018-08-24T20:45:21.544Z,3.80
2018-08-24T20:47:54.053Z,3.80
2018-08-24T20:50:26.409Z,5.00
2018-08-24T20:52:58.916Z,6.00
2018-08-24T20:55:32.830Z,6.00
2018-08-24T20:58:04.228Z,6.00
2018-08-24T21:00:38.264Z,5.00
2018-08-24T21:03:09.722Z,4.80
2018-08-24T21:05:40.900Z,5.00
2018-08-24T21:08:12.126Z,4.00
2018-08-24T21:10:47.882Z,6.00
2018-08-24T21:13:19.238Z,7.00
2018-08-24T21:15:52.642Z,5.00
2018-08-24T21:18:26.161Z,5.00
2018-08-24T21:21:00.616Z,5.40
2018-08-24T21:23:33.532Z,5.00
2018-08-24T21:26:05.493Z,5.00
2018-08-24T21:28:36.800Z,5.00
2018-08-24T21:31:07.846Z,5.00
2018-08-24T21:33:38.940Z,5.00
2018-08-24T21:36:10.545Z,5.80
2018-08-24T21:38:45.569Z,5.00
2018-08-24T21:41:16.643Z,4.80
2018-08-24T21:43:48.725Z,5.00
2018-08-24T21:46:20.685Z,7.60
2018-08-24T21:48:54.803Z,5.00
2018-08-24T21:51:25.845Z,6.00
2018-08-24T21:53:57.832Z,5.80
2018-08-24T21:56:32.532Z,5.40
2018-08-24T21:59:04.022Z,5.00
2018-08-24T22:01:36.551Z,4.80
2018-08-24T22:04:07.737Z,4.60
2018-08-24T22:06:38.814Z,9.00
2018-08-24T22:09:11.500Z,5.00
2018-08-24T22:11:43.295Z,6.00
2018-08-24T22:14:16.277Z,5.00
2018-08-24T22:16:49.239Z,5.80
2018-08-24T22:19:21.069Z,4.80
2018-08-24T22:21:56.573Z,7.20
2018-08-24T22:24:30.254Z,4.00
2018-08-24T22:27:03.719Z,5.00
2018-08-24T22:29:37.189Z,5.80
2018-08-24T22:32:10.279Z,4.60
2018-08-24T22:34:42.587Z,5.20
2018-08-24T22:37:16.146Z,4.40
2018-08-24T22:39:47.131Z,6.00
2018-08-24T22:42:21.581Z,5.00
2018-08-24T22:44:53.213Z,5.00
2018-08-24T22:47:25.884Z,5.80
2018-08-24T22:49:58.207Z,5.00
2018-08-24T22:52:33.176Z,6.00
2018-08-24T22:55:07.007Z,5.00
2018-08-24T22:57:38.140Z,5.00
2018-08-24T23:00:13.155Z,6.00
2018-08-24T23:02:57.213Z,5.20
2018-08-24T23:05:29.958Z,5.20
2018-08-24T23:08:03.867Z,6.00
2018-08-24T23:10:36.896Z,5.80
2018-08-24T23:13:08.519Z,4.80
2018-08-24T23:15:40.673Z,6.00
2018-08-24T23:18:11.655Z,6.00
2018-08-24T23:20:43.313Z,6.00
2018-08-24T23:23:15.610Z,5.00
2018-08-24T23:25:46.385Z,4.33
2018-08-24T23:28:18.981Z,5.00
2018-08-24T23:30:51.224Z,4.00
2018-08-24T23:33:22.258Z,5.60
2018-08-24T23:35:57.532Z,4.60
2018-08-24T23:38:28.904Z,4.00
2018-08-24T23:40:59.951Z,4.80
2018-08-24T23:43:30.929Z,5.40
2018-08-24T23:46:02.263Z,5.40
2018-08-24T23:48:33.895Z,4.40
2018-08-24T23:51:04.992Z,4.00
2018-08-24T23:53:36.084Z,2.80
2018-08-24T23:56:07.312Z,4.00
2018-08-24T23:58:41.964Z,5.20
